Time;durP1;ratioP1;P1;durP2;ratioP2;P2;SDS_P1;SDS_P2;PMS_P1;PMS_P2;Temp;Humidity;BMP_temperature;BMP_pressure;BME280_temperature;BME280_humidity;BME280_pressure;Samples;Min_cycle;Max_cycle;Signal;HPM_P1;HPM_P2
2022/04/21 00:01:23;;;;;;;6.43;5.70;;;;;;;8.59;60.33;100131.47;5075819;28;20059;-78
2022/04/21 00:03:55;;;;;;;6.63;5.45;;;;;;;8.58;59.83;100124.31;5076434;28;20060;-78
2022/04/21 00:06:22;;;;;;;6.45;5.72;;;;;;;8.53;59.43;100119.69;5082381;28;20049;-78
2022/04/21 00:08:49;;;;;;;6.97;6.25;;;;;;;8.49;60.29;100122.25;5076982;28;20064;-79
2022/04/21 00:11:17;;;;;;;7.15;6.40;;;;;;;8.46;60.17;100119.25;5079517;28;20052;-78
2022/04/21 00:13:49;;;;;;;8.13;7.32;;;;;;;8.40;60.70;100115.75;5077944;28;20056;-78
2022/04/21 00:16:16;;;;;;;8.23;6.88;;;;;;;8.37;60.98;100116.34;5076017;28;20048;-78
2022/04/21 00:18:46;;;;;;;7.95;7.15;;;;;;;8.33;60.86;100115.31;5075504;28;20059;-78
2022/04/21 00:21:15;;;;;;;9.38;7.50;;;;;;;8.31;60.83;100112.03;5076097;28;20060;-78
2022/04/21 00:23:41;;;;;;;9.18;7.05;;;;;;;8.27;60.51;100116.56;5073292;28;20068;-77
2022/04/21 00:26:09;;;;;;;7.93;7.13;;;;;;;8.24;60.36;100115.22;5073494;28;20053;-77
2022/04/21 00:28:36;;;;;;;7.90;6.97;;;;;;;8.20;61.35;100118.94;5072575;28;20053;-78
2022/04/21 00:31:07;;;;;;;8.48;7.63;;;;;;;8.14;61.48;100107.91;5073435;28;20064;-78
2022/04/21 00:33:34;;;;;;;8.27;7.47;;;;;;;8.05;61.62;100117.28;5073606;28;20060;-78
2022/04/21 00:36:01;;;;;;;8.75;7.35;;;;;;;8.04;62.02;100110.91;5075392;28;20048;-78
2022/04/21 00:38:30;;;;;;;8.55;6.65;;;;;;;8.05;61.12;100112.53;5073524;28;20060;-77
2022/04/21 00:40:57;;;;;;;8.82;6.72;;;;;;;8.01;61.54;100105.97;5073349;28;20485;-78
2022/04/21 00:43:25;;;;;;;7.88;6.97;;;;;;;8.01;61.83;100103.19;5072896;28;20489;-77
2022/04/21 00:45:56;;;;;;;7.60;6.80;;;;;;;8.00;61.73;100104.31;5072939;28;20057;-78
2022/04/21 00:48:25;;;;;;;7.22;6.43;;;;;;;7.96;61.55;100096.91;5071947;28;20056;-78
2022/04/21 00:50:53;;;;;;;7.18;6.47;;;;;;;7.92;61.81;100097.53;5072500;28;20405;-78
2022/04/21 00:53:20;;;;;;;7.40;6.63;;;;;;;7.87;61.91;100096.78;5072516;28;20405;-78
2022/04/21 00:55:49;;;;;;;6.75;6.05;;;;;;;7.81;61.96;100098.84;5072699;28;20060;-78
2022/04/21 00:58:17;;;;;;;8.05;6.70;;;;;;;7.78;61.93;100093.09;5073530;28;20062;-78
2022/04/21 01:00:45;;;;;;;6.80;6.10;;;;;;;7.76;61.90;100092.56;5073092;28;20409;-78
2022/04/21 01:03:14;;;;;;;6.97;5.72;;;;;;;7.73;62.01;100089.28;5073788;28;20055;-78
2022/04/21 01:05:42;;;;;;;6.53;5.93;;;;;;;7.69;62.29;100085.47;5072990;28;20045;-78
2022/04/21 01:08:09;;;;;;;6.22;5.63;;;;;;;7.67;61.72;100082.19;5074029;28;20489;-77
2022/04/21 01:10:41;;;;;;;6.38;5.28;;;;;;;7.65;61.95;100078.06;5073420;28;20044;-78
2022/04/21 01:13:12;;;;;;;6.70;6.00;;;;;;;7.63;62.16;100086.69;5072723;28;20052;-79
2022/04/21 01:15:40;;;;;;;7.00;5.97;;;;;;;7.59;62.12;100082.06;5076679;28;20044;-79
2022/04/21 01:18:08;;;;;;;6.78;5.88;;;;;;;7.58;62.39;100086.78;5077621;28;20413;-79
2022/04/21 01:20:42;;;;;;;6.47;5.57;;;;;;;7.56;62.26;100085.41;5076925;28;20504;-78
2022/04/21 01:23:12;;;;;;;6.80;6.10;;;;;;;7.52;62.71;100083.28;5077114;28;20044;-79
2022/04/21 01:25:40;;;;;;;6.97;6.28;;;;;;;7.51;63.05;100080.78;5076665;28;20078;-78
2022/04/21 01:28:10;;;;;;;6.72;5.30;;;;;;;7.50;62.16;100084.72;5077077;28;20052;-79
2022/04/21 01:30:40;;;;;;;6.28;5.53;;;;;;;7.48;62.53;100073.91;5076840;28;20416;-79
2022/04/21 01:33:10;;;;;;;6.88;6.00;;;;;;;7.44;62.80;100072.06;5077403;28;20051;-78
2022/04/21 01:35:41;;;;;;;6.40;5.75;;;;;;;7.40;62.77;100069.06;5076764;28;20037;-79
2022/04/21 01:41:11;;;;;;;6.97;6.10;;;;;;;7.38;62.27;100074.09;5077789;28;20068;-79
2022/04/21 01:43:39;;;;;;;7.35;6.38;;;;;;;7.34;63.59;100077.78;5076270;28;20055;-78
2022/04/21 01:46:07;;;;;;;7.90;7.10;;;;;;;7.31;63.33;100063.41;5076026;28;20049;-78
2022/04/21 01:48:34;;;;;;;10.07;6.97;;;;;;;7.25;64.00;100059.06;5075972;28;20068;-78
2022/04/21 01:51:03;;;;;;;9.38;6.63;;;;;;;7.21;64.11;100055.25;5069718;28;20052;-78
2022/04/21 01:53:31;;;;;;;10.10;7.35;;;;;;;7.16;63.41;100066.44;5055973;28;20064;-78
2022/04/21 01:55:58;;;;;;;7.53;6.70;;;;;;;7.16;63.78;100049.81;5060732;28;20059;-78
2022/04/21 01:58:26;;;;;;;7.82;6.93;;;;;;;7.10;64.35;100056.56;5077501;28;20049;-78
2022/04/21 02:00:59;;;;;;;9.65;7.07;;;;;;;7.09;63.50;100055.72;5077554;28;20052;-78
2022/04/21 02:03:27;;;;;;;8.70;6.60;;;;;;;7.07;63.93;100057.97;5060383;28;20063;-78
2022/04/21 02:05:55;;;;;;;9.23;6.03;;;;;;;7.04;64.39;100052.22;5061683;28;20059;-78
2022/04/21 02:08:24;;;;;;;7.57;6.53;;;;;;;7.02;63.90;100046.16;5080248;28;20060;-78
2022/04/21 02:10:51;;;;;;;6.65;6.05;;;;;;;7.01;64.29;100058.34;5079531;28;20056;-78
2022/04/21 02:13:18;;;;;;;8.25;6.70;;;;;;;6.99;64.19;100049.50;5079212;28;20053;-78
2022/04/21 02:15:48;;;;;;;7.20;6.50;;;;;;;6.99;64.07;100055.06;5080126;28;20057;-78
2022/04/21 02:18:17;;;;;;;8.40;6.43;;;;;;;6.99;63.81;100044.81;5079676;28;20060;-78
2022/04/21 02:20:44;;;;;;;6.95;6.25;;;;;;;6.97;63.79;100036.00;5079365;28;20509;-78
2022/04/21 02:23:11;;;;;;;8.68;6.30;;;;;;;6.93;64.23;100042.41;5079792;28;20049;-78
2022/04/21 02:25:42;;;;;;;7.80;6.50;;;;;;;6.89;63.78;100042.22;5080060;28;20049;-78
2022/04/21 02:28:09;;;;;;;7.97;6.20;;;;;;;6.86;63.66;100037.25;5079343;28;20056;-78
2022/04/21 02:30:37;;;;;;;7.35;6.65;;;;;;;6.84;64.02;100037.56;5078880;28;20056;-78
2022/04/21 02:33:04;;;;;;;9.77;6.80;;;;;;;6.82;63.96;100039.78;5076500;28;20059;-77
2022/04/21 02:35:31;;;;;;;8.23;7.18;;;;;;;6.79;64.14;100034.06;5077718;28;20397;-77
2022/04/21 02:37:58;;;;;;;7.88;6.80;;;;;;;6.79;64.00;100042.38;5076558;28;20063;-77
2022/04/21 02:40:26;;;;;;;13.13;7.38;;;;;;;6.78;64.57;100037.94;5077009;28;20048;-78
2022/04/21 02:42:59;;;;;;;7.20;6.43;;;;;;;6.76;64.44;100038.25;5068212;28;20084;-78
2022/04/21 02:45:26;;;;;;;7.53;6.20;;;;;;;6.74;63.93;100032.19;5058262;28;20053;-78
2022/04/21 02:47:54;;;;;;;6.55;5.93;;;;;;;6.71;63.39;100030.00;5055056;28;20045;-77
2022/04/21 02:50:21;;;;;;;7.40;6.05;;;;;;;6.69;63.65;100032.25;5055232;28;20057;-78
2022/04/21 02:52:49;;;;;;;7.20;5.85;;;;;;;6.67;64.05;100031.72;5054293;28;20120;-77
2022/04/21 02:58:02;;;;;;;7.78;6.35;;;;;;;6.59;64.04;100029.63;5061240;28;20413;-77
2022/04/21 03:00:30;;;;;;;8.00;6.15;;;;;;;6.54;63.86;100033.31;5055364;28;20052;-77
2022/04/21 03:02:57;;;;;;;6.85;5.65;;;;;;;6.50;64.20;100033.06;5055010;28;20492;-78
2022/04/21 03:05:26;;;;;;;6.43;5.75;;;;;;;6.35;64.54;100036.06;5055021;28;20429;-77
2022/04/21 03:07:54;;;;;;;8.07;5.40;;;;;;;6.37;63.98;100033.00;5053911;28;20056;-77
2022/04/21 03:10:22;;;;;;;5.82;4.90;;;;;;;6.36;64.61;100031.34;5053710;28;20079;-77
2022/04/21 03:12:49;;;;;;;7.82;5.40;;;;;;;6.35;64.67;100026.94;5053971;28;20052;-77
2022/04/21 03:15:18;;;;;;;6.55;4.90;;;;;;;6.33;63.99;100035.53;5054347;28;20057;-77
2022/04/21 03:17:45;;;;;;;6.30;5.60;;;;;;;6.30;64.07;100034.19;5053495;28;20053;-77
2022/04/21 03:24:18;;;;;;;6.03;5.25;;;;;;;6.25;64.46;100033.41;5054366;28;20053;-77
2022/04/21 03:25:45;;;;;;;7.68;5.90;;;;;;;6.16;64.37;100026.91;5054827;28;20075;-77
2022/04/21 03:28:13;;;;;;;7.30;6.18;;;;;;;6.02;64.95;100024.84;5055351;28;20068;-77
2022/04/21 03:30:42;;;;;;;6.43;5.40;;;;;;;6.04;64.78;100030.91;5055452;28;20044;-78
2022/04/21 03:33:09;;;;;;;6.30;5.70;;;;;;;6.05;64.57;100020.69;5054134;28;20049;-77
2022/04/21 03:35:37;;;;;;;10.18;7.03;;;;;;;6.04;64.79;100032.84;5054481;28;20107;-78
2022/04/21 03:38:04;;;;;;;8.63;6.30;;;;;;;6.02;64.84;100035.91;5070134;28;20405;-78
2022/04/21 03:40:32;;;;;;;8.48;5.68;;;;;;;6.01;64.86;100030.69;5074525;28;20052;-78
2022/04/21 03:43:00;;;;;;;7.55;6.30;;;;;;;5.96;65.34;100023.25;5074517;28;20052;-78
2022/04/21 03:45:27;;;;;;;7.65;5.97;;;;;;;5.92;65.57;100033.22;5074491;28;20048;-78
2022/04/21 03:48:01;;;;;;;6.45;5.53;;;;;;;5.89;65.29;100028.28;5073436;28;20441;-77
2022/04/21 03:50:31;;;;;;;7.43;5.97;;;;;;;5.84;65.72;100026.41;5073686;28;20143;-77
2022/04/21 03:52:58;;;;;;;;;;;;;;;5.81;65.65;100027.00;5073858;28;20045;-78
2022/04/21 03:55:26;;;;;;;8.35;6.15;;;;;;;5.77;65.43;100025.09;5073424;28;19931;-77
2022/04/21 03:57:53;;;;;;;6.28;5.60;;;;;;;5.70;65.99;100026.28;5058724;28;20059;-78
2022/04/21 04:00:20;;;;;;;6.35;5.63;;;;;;;5.67;66.22;100026.06;5077015;28;20056;-78
2022/04/21 04:02:48;;;;;;;6.18;5.57;;;;;;;5.63;66.28;100025.81;5077490;28;20056;-78
2022/04/21 04:05:17;;;;;;;7.80;6.18;;;;;;;5.63;66.64;100034.09;5076916;28;20056;-78
2022/04/21 04:13:24;;;;;;;8.20;5.88;;;;;;;5.62;66.70;100031.63;5030212;28;20048;-78
2022/04/21 04:15:53;;;;;;;6.43;5.70;;;;;;;5.60;66.51;100025.56;5076804;28;20051;-78
2022/04/21 04:18:21;;;;;;;7.35;6.00;;;;;;;5.61;66.45;100024.47;5073635;28;20053;-77
2022/04/21 04:20:50;;;;;;;7.10;5.88;;;;;;;5.61;66.41;100024.47;5067745;28;20045;-77
2022/04/21 04:23:18;;;;;;;8.13;6.30;;;;;;;5.60;66.12;100029.16;5053297;28;20049;-77
2022/04/21 04:25:46;;;;;;;7.78;6.20;;;;;;;5.61;66.46;100033.56;5052904;28;20483;-77
2022/04/21 04:28:13;;;;;;;7.97;6.40;;;;;;;5.60;66.37;100033.84;5053458;28;20059;-77
2022/04/21 04:30:42;;;;;;;10.88;7.32;;;;;;;5.59;66.94;100035.81;5052910;28;20060;-77
2022/04/21 04:33:10;;;;;;;8.27;6.97;;;;;;;5.61;66.85;100033.56;5053042;28;20409;-77
2022/04/21 04:35:37;;;;;;;10.90;6.90;;;;;;;5.61;68.01;100035.53;5052747;28;20045;-78
2022/04/21 04:38:06;;;;;;;9.27;7.32;;;;;;;5.68;68.70;100039.56;5067618;28;20048;-78
2022/04/21 04:40:34;;;;;;;8.85;7.28;;;;;;;5.79;67.79;100034.75;5072981;28;20178;-77
2022/04/21 04:43:01;;;;;;;10.45;7.35;;;;;;;5.82;67.41;100041.66;5072260;28;20049;-77
2022/04/21 04:48:13;;;;;;;7.97;6.60;;;;;;;5.91;67.30;100045.41;5078731;28;20105;-77
2022/04/21 04:50:40;;;;;;;7.47;6.18;;;;;;;6.00;66.58;100040.91;5072532;28;20063;-77
2022/04/21 04:53:11;;;;;;;8.00;5.80;;;;;;;6.09;66.54;100049.38;5074905;28;20044;-78
2022/04/21 04:55:38;;;;;;;7.50;5.25;;;;;;;6.14;65.77;100051.25;5077062;28;20055;-78
2022/04/21 04:58:06;;;;;;;7.18;5.25;;;;;;;6.16;64.94;100049.03;5076775;28;20064;-78
2022/04/21 05:00:33;;;;;;;6.32;5.60;;;;;;;6.19;64.71;100053.94;5077459;28;20067;-78
2022/04/21 05:03:01;;;;;;;6.75;5.38;;;;;;;6.21;64.55;100041.47;5077089;28;20063;-78
2022/04/21 05:05:28;;;;;;;5.68;5.03;;;;;;;6.23;64.80;100049.47;5078665;28;20053;-77
2022/04/21 05:07:56;;;;;;;5.90;4.85;;;;;;;6.27;64.42;100045.00;5072689;28;20056;-77
2022/04/21 05:10:28;;;;;;;5.90;5.03;;;;;;;6.25;64.96;100038.94;5072733;28;20048;-77
2022/04/21 05:12:55;;;;;;;6.32;5.47;;;;;;;6.27;64.38;100039.47;5071986;28;20056;-77
2022/04/21 05:15:23;;;;;;;6.93;5.85;;;;;;;6.30;64.29;100036.13;5072973;28;20059;-77
2022/04/21 05:17:50;;;;;;;9.52;5.95;;;;;;;6.31;64.45;100037.75;5072458;28;20044;-77
2022/04/21 05:20:23;;;;;;;5.82;5.07;;;;;;;6.33;64.68;100032.75;5072605;28;20048;-77
2022/04/21 05:22:52;;;;;;;12.05;6.10;;;;;;;6.36;64.18;100031.34;5072323;28;20056;-77
2022/04/21 05:25:20;;;;;;;6.95;5.40;;;;;;;6.41;64.03;100032.09;5072530;28;20052;-78
2022/04/21 05:27:49;;;;;;;8.25;5.55;;;;;;;6.43;64.28;100027.09;5072267;28;20056;-77
2022/04/21 05:33:03;;;;;;;7.78;5.20;;;;;;;6.56;64.12;100024.72;5076316;28;20059;-78
2022/04/21 05:35:32;;;;;;;6.60;5.57;;;;;;;6.62;64.81;100020.75;5077339;28;20052;-78
2022/04/21 05:37:59;;;;;;;8.40;5.88;;;;;;;6.68;64.56;100017.59;5077476;28;20158;-78
2022/04/21 05:40:27;;;;;;;13.70;6.57;;;;;;;6.75;64.52;100020.00;5077566;28;20052;-78
2022/04/21 05:43:01;;;;;;;8.23;6.10;;;;;;;6.83;64.64;100024.03;5072279;28;20055;-77
2022/04/21 05:45:30;;;;;;;7.93;6.72;;;;;;;6.93;64.37;100028.56;5076969;28;20048;-78
2022/04/21 05:47:58;;;;;;;8.40;6.97;;;;;;;7.00;64.32;100034.56;5076742;28;20044;-78
2022/04/21 05:50:27;;;;;;;10.52;7.10;;;;;;;7.09;65.18;100029.97;5076455;28;20051;-78
2022/04/21 05:52:59;;;;;;;9.90;7.00;;;;;;;7.17;64.40;100026.50;5076373;28;20408;-78
2022/04/21 05:55:28;;;;;;;12.30;6.93;;;;;;;7.26;64.56;100027.47;5075379;28;20486;-78
2022/04/21 05:57:57;;;;;;;10.25;8.38;;;;;;;7.39;64.32;100030.56;5076185;28;20053;-78
2022/04/21 06:00:25;;;;;;;10.85;8.40;;;;;;;7.49;64.48;100024.84;5075953;28;20055;-78
2022/04/21 06:02:52;;;;;;;11.18;8.65;;;;;;;7.58;63.41;100028.59;5075160;28;20052;-78
2022/04/21 06:05:19;;;;;;;11.52;8.63;;;;;;;7.68;63.26;100022.00;5075482;28;20048;-78
2022/04/21 06:07:47;;;;;;;11.85;8.27;;;;;;;7.78;63.10;100021.00;5076389;28;20076;-78
2022/04/21 06:10:14;;;;;;;11.32;8.32;;;;;;;7.92;63.21;100032.94;5075325;28;20056;-78
2022/04/21 06:12:42;;;;;;;8.45;7.38;;;;;;;8.03;62.38;100026.03;5076062;28;20060;-78
2022/04/21 06:15:10;;;;;;;10.70;8.50;;;;;;;8.13;62.63;100028.59;5073193;28;20083;-77
2022/04/21 06:17:38;;;;;;;10.93;8.20;;;;;;;8.22;61.93;100017.59;5071532;28;20401;-77
2022/04/21 06:20:06;;;;;;;12.07;8.00;;;;;;;8.30;61.83;100016.06;5071314;28;20481;-78
2022/04/21 06:22:34;;;;;;;10.40;8.10;;;;;;;8.38;61.52;100015.34;5071411;28;20131;-77
2022/04/21 06:25:02;;;;;;;12.73;9.00;;;;;;;8.44;61.94;100011.34;5071445;28;20053;-77
2022/04/21 06:27:29;;;;;;;9.93;8.82;;;;;;;8.49;61.89;100008.44;5071576;28;20048;-78
2022/04/21 06:29:56;;;;;;;10.10;7.43;;;;;;;8.57;61.95;100009.66;5071419;28;20060;-77
2022/04/21 06:32:25;;;;;;;10.15;8.85;;;;;;;8.64;62.43;100007.28;5071463;28;20413;-77
2022/04/21 06:34:52;;;;;;;9.50;8.47;;;;;;;8.74;62.48;100009.81;5071346;28;20488;-78
2022/04/21 06:37:20;;;;;;;9.63;8.43;;;;;;;8.85;62.05;100009.56;5075379;28;20432;-78
2022/04/21 06:39:47;;;;;;;10.45;8.70;;;;;;;8.97;62.00;100003.47;5076882;28;20059;-78
2022/04/21 06:42:15;;;;;;;9.93;8.88;;;;;;;9.10;61.67;100005.34;5072934;28;20056;-77
2022/04/21 06:50:13;;;;;;;9.15;7.68;;;;;;;9.56;60.77;100004.16;5077194;28;20064;-77
2022/04/21 06:52:41;;;;;;;7.00;6.20;;;;;;;9.69;60.10;100000.47;5076179;28;20397;-78
2022/04/21 06:55:09;;;;;;;5.88;4.68;;;;;;;9.84;59.60;100003.97;5079222;28;20122;-78
2022/04/21 06:57:36;;;;;;;6.28;4.40;;;;;;;10.02;57.97;100002.06;5078664;28;20381;-78
2022/04/21 07:00:05;;;;;;;8.00;5.03;;;;;;;10.11;57.62;99997.34;5078690;28;20060;-78
2022/04/21 07:02:37;;;;;;;6.47;4.38;;;;;;;10.38;56.99;99996.28;5078822;28;20512;-78
2022/04/21 07:05:07;;;;;;;5.50;4.40;;;;;;;10.59;56.70;99996.50;5078754;28;20059;-78
2022/04/21 07:07:34;;;;;;;;;;;;;;;10.74;55.85;99996.00;5079818;28;20055;-78
2022/04/21 07:10:02;;;;;;;6.93;4.60;;;;;;;10.95;55.70;99989.78;5079699;28;19920;-78
2022/04/21 07:12:30;;;;;;;7.07;4.32;;;;;;;11.21;55.10;99995.31;5078899;28;20075;-78
2022/04/21 07:14:58;;;;;;;7.05;4.13;;;;;;;11.43;53.75;99993.47;5078909;28;20166;-78
2022/04/21 07:17:28;;;;;;;7.20;4.57;;;;;;;11.74;53.73;99996.00;5078713;28;20055;-78
2022/04/21 07:19:58;;;;;;;4.63;3.97;;;;;;;12.06;51.64;99993.75;5078868;28;20071;-78
2022/04/21 07:22:26;;;;;;;;;;;;;;;12.26;50.99;99990.19;5080324;28;20052;-78
2022/04/21 07:24:53;;;;;;;4.30;3.90;;;;;;;12.93;49.56;99988.38;5079996;28;19920;-78
2022/04/21 07:27:21;;;;;;;4.47;3.38;;;;;;;14.06;47.16;99989.16;5078695;28;20075;-78
2022/04/21 07:29:48;;;;;;;4.07;3.67;;;;;;;15.25;44.05;99987.19;5074731;28;20056;-77
2022/04/21 07:32:16;;;;;;;4.13;3.25;;;;;;;16.52;41.60;99998.44;5075486;28;20397;-77
2022/04/21 07:34:43;;;;;;;4.93;3.55;;;;;;;17.85;38.79;99991.56;5076907;28;20045;-77
2022/04/21 07:37:12;;;;;;;5.30;3.20;;;;;;;19.42;36.80;99977.28;5077447;28;20059;-78
2022/04/21 07:39:42;;;;;;;3.67;3.22;;;;;;;20.80;33.52;99984.50;5078668;28;20048;-77
2022/04/21 07:42:10;;;;;;;3.97;3.17;;;;;;;22.24;30.97;99982.91;5077865;28;20049;-77
2022/04/21 07:44:37;;;;;;;6.88;3.20;;;;;;;23.46;29.23;99981.75;5077450;28;20071;-77
2022/04/21 07:47:06;;;;;;;4.10;2.95;;;;;;;24.73;27.08;99976.69;5074212;28;20532;-77
2022/04/21 07:49:47;;;;;;;4.65;3.05;;;;;;;25.71;26.17;99980.75;5075219;28;20056;-77
2022/04/21 07:55:16;;;;;;;3.65;3.00;;;;;;;27.79;22.47;99965.34;5080773;28;20063;-78
2022/04/21 07:57:43;;;;;;;4.97;3.08;;;;;;;28.49;21.31;99966.09;5078524;28;20048;-78
2022/04/21 08:00:12;;;;;;;4.47;3.28;;;;;;;29.14;20.29;99974.53;5078091;28;20049;-78
2022/04/21 08:02:40;;;;;;;3.15;2.70;;;;;;;29.91;19.81;99976.72;5077262;28;20080;-78
2022/04/21 08:05:10;;;;;;;5.10;2.80;;;;;;;30.02;19.48;99962.00;5058636;28;20075;-78
2022/04/21 08:07:39;;;;;;;5.25;2.83;;;;;;;30.71;18.40;99964.16;5058531;28;20053;-78
2022/04/21 08:10:12;;;;;;;3.33;2.30;;;;;;;30.77;18.11;99955.72;5077142;28;20052;-78
2022/04/21 08:12:41;;;;;;;4.05;2.67;;;;;;;31.14;17.69;99951.88;5076627;28;20049;-77
2022/04/21 08:15:10;;;;;;;2.63;2.25;;;;;;;30.92;17.66;99951.88;5077049;28;20389;-78
2022/04/21 08:17:38;;;;;;;2.80;2.28;;;;;;;30.78;17.68;99960.19;5078033;28;20052;-78
2022/04/21 08:20:08;;;;;;;2.92;2.30;;;;;;;30.46;17.23;99959.28;5076846;28;20052;-77
2022/04/21 08:22:39;;;;;;;3.70;2.17;;;;;;;29.32;17.87;99968.25;5076780;28;20504;-77
2022/04/21 08:33:25;;;;;;;4.15;2.65;;;;;;;25.65;21.91;99969.00;5079032;28;20059;-78
2022/04/21 08:35:57;;;;;;;4.03;2.40;;;;;;;24.77;23.76;99974.59;5059250;28;20045;-78
2022/04/21 08:38:25;;;;;;;4.50;2.88;;;;;;;24.49;23.45;99971.63;5076671;28;20436;-78
2022/04/21 08:40:58;;;;;;;3.67;2.67;;;;;;;24.02;24.24;99967.56;5078493;28;20428;-78
2022/04/21 08:43:28;;;;;;;3.78;2.47;;;;;;;23.62;25.32;99976.38;5079905;28;20055;-78
2022/04/21 08:45:57;;;;;;;4.00;3.20;;;;;;;23.28;25.71;99964.78;5078782;28;20044;-78
2022/04/21 08:48:28;;;;;;;4.25;2.75;;;;;;;22.99;26.24;99978.25;5078584;28;20059;-78
2022/04/21 08:50:55;;;;;;;4.10;3.10;;;;;;;22.65;26.60;99976.75;5078218;28;20049;-78
2022/04/21 08:53:25;;;;;;;3.10;2.60;;;;;;;22.24;26.90;99977.22;5079091;28;20052;-78
2022/04/21 08:55:52;;;;;;;;;;;;;;;21.58;27.75;99973.91;5078380;28;20052;-78
2022/04/21 08:58:23;;;;;;;3.53;2.92;;;;;;;21.25;27.86;99970.13;5078126;28;19925;-77
2022/04/21 09:00:53;;;;;;;2.58;2.33;;;;;;;20.81;28.26;99974.00;5076878;28;20056;-78
2022/04/21 09:03:22;;;;;;;4.05;2.50;;;;;;;20.36;29.40;99976.94;5076711;28;20126;-78
2022/04/21 09:05:49;;;;;;;2.90;2.55;;;;;;;20.08;29.55;99986.03;5077291;28;20044;-78
2022/04/21 09:08:23;;;;;;;5.82;2.90;;;;;;;19.67;29.31;99977.53;5075710;28;20045;-78
2022/04/21 09:11:03;;;;;;;4.30;2.67;;;;;;;19.26;30.51;99977.50;5072838;28;20052;-78
2022/04/21 09:13:40;;;;;;;5.03;2.65;;;;;;;19.09;31.34;99980.91;5071610;28;20528;-77
2022/04/21 09:16:09;;;;;;;4.72;2.58;;;;;;;18.93;31.31;99978.31;5077851;28;20067;-79
2022/04/21 09:18:37;;;;;;;3.13;2.60;;;;;;;18.83;31.41;99976.97;5075361;28;20044;-77
2022/04/21 09:21:15;;;;;;;4.10;2.75;;;;;;;18.69;32.27;99977.56;5075113;28;20423;-78
2022/04/21 09:23:43;;;;;;;3.28;2.47;;;;;;;18.60;32.64;99977.81;5074561;28;20060;-77
2022/04/21 09:26:15;;;;;;;4.15;3.13;;;;;;;18.53;32.47;99969.28;5064315;28;20060;-77
2022/04/21 09:28:52;;;;;;;3.53;2.38;;;;;;;18.55;32.92;99966.88;5055639;28;20063;-78
2022/04/21 09:31:20;;;;;;;4.80;2.88;;;;;;;18.61;32.43;99954.09;5056503;28;20064;-78
2022/04/21 09:33:47;;;;;;;3.50;2.70;;;;;;;18.59;32.38;99970.56;5055766;28;20064;-78
2022/04/21 09:36:18;;;;;;;4.40;2.60;;;;;;;18.47;32.62;99962.34;5056082;28;20477;-78
2022/04/21 09:38:58;;;;;;;4.82;2.72;;;;;;;18.38;32.70;99959.00;5056545;28;20057;-78
2022/04/21 09:41:29;;;;;;;5.95;4.20;;;;;;;18.17;33.39;99965.91;5057043;28;20053;-78
2022/04/21 09:46:07;;;;;;;4.45;2.90;;;;;;;18.22;33.53;99959.94;5055677;28;20048;-77
2022/04/21 09:46:56;;;;;;;4.13;2.97;;;;;;;18.11;33.57;99956.16;5063298;28;20048;-78
2022/04/21 09:49:42;;;;;;;5.13;3.08;;;;;;;18.05;34.20;99957.66;5075132;28;20052;-78
2022/04/21 09:52:09;;;;;;;5.50;3.17;;;;;;;17.82;34.50;99971.75;5071225;28;20057;-78
2022/04/21 09:54:40;;;;;;;5.68;3.03;;;;;;;17.73;34.79;99972.00;5075411;28;20055;-77
2022/04/21 09:57:10;;;;;;;4.07;2.95;;;;;;;17.61;35.30;99972.97;5075312;28;20044;-77
2022/04/21 09:59:41;;;;;;;5.20;3.63;;;;;;;17.69;35.47;99971.13;5075232;28;20060;-77
2022/04/21 10:02:11;;;;;;;6.05;3.50;;;;;;;17.83;34.83;99962.94;5074751;28;20063;-77
2022/04/21 10:04:42;;;;;;;4.82;3.13;;;;;;;17.91;35.20;99961.09;5071874;28;20060;-78
2022/04/21 10:07:10;;;;;;;4.22;3.25;;;;;;;17.99;35.90;99954.34;5073198;28;20040;-77
2022/04/21 10:09:37;;;;;;;3.80;3.20;;;;;;;18.00;35.28;99952.38;5075966;28;20060;-78
2022/04/21 10:12:06;;;;;;;5.20;3.72;;;;;;;17.97;35.73;99948.28;5076695;28;20052;-77
2022/04/21 10:14:33;;;;;;;4.38;3.10;;;;;;;17.99;35.15;99940.25;5075878;28;20075;-78
2022/04/21 10:17:03;;;;;;;4.80;3.55;;;;;;;17.92;35.11;99936.53;5075500;28;20500;-77
2022/04/21 10:19:32;;;;;;;4.25;3.30;;;;;;;17.94;35.40;99936.97;5056390;28;20053;-78
2022/04/21 10:22:02;;;;;;;5.65;3.03;;;;;;;18.01;35.72;99935.06;5059404;28;20057;-77
2022/04/21 10:24:32;;;;;;;;;;;;;;;18.01;35.89;99937.06;5077601;28;20532;-77
2022/04/21 10:26:59;;;;;;;6.18;3.63;;;;;;;18.26;35.19;99935.44;5074912;28;19920;-77
2022/04/21 10:29:27;;;;;;;4.65;3.40;;;;;;;18.52;34.92;99932.97;5075639;28;20056;-77
2022/04/21 10:31:57;;;;;;;4.65;3.60;;;;;;;18.77;34.91;99928.50;5075449;28;20485;-77
2022/04/21 10:34:32;;;;;;;4.38;3.08;;;;;;;19.04;34.14;99932.06;5074796;28;20061;-77
2022/04/21 10:37:13;;;;;;;4.72;3.70;;;;;;;19.21;34.02;99927.03;5079539;28;20052;-78
2022/04/21 10:40:01;;;;;;;4.68;3.20;;;;;;;19.35;34.22;99918.69;5079730;28;20048;-77
2022/04/21 10:42:28;;;;;;;5.78;3.20;;;;;;;19.45;33.31;99925.66;5080037;28;20288;-78
2022/04/21 10:44:56;;;;;;;5.63;3.60;;;;;;;19.46;34.10;99914.00;5063008;28;20045;-77
2022/04/21 10:47:41;;;;;;;6.38;3.85;;;;;;;19.61;33.49;99917.75;5058818;28;20502;-78
2022/04/21 10:50:19;;;;;;;4.55;3.00;;;;;;;19.89;33.36;99912.78;5079141;28;20056;-76
2022/04/21 10:58:50;;;;;;;4.25;3.58;;;;;;;21.17;32.14;99906.22;5074722;28;20083;-77
2022/04/21 11:01:19;;;;;;;4.05;3.60;;;;;;;21.74;30.70;99899.84;5074596;28;20052;-77
2022/04/21 11:04:06;;;;;;;4.68;3.42;;;;;;;22.20;30.32;99891.28;5074508;28;20044;-77
2022/04/21 11:06:45;;;;;;;3.63;3.30;;;;;;;22.61;29.84;99890.78;5074172;28;20052;-77
2022/04/21 11:09:35;;;;;;;5.57;3.67;;;;;;;23.61;28.13;99889.44;5074155;28;20052;-77
2022/04/21 11:12:04;;;;;;;5.20;3.80;;;;;;;24.81;27.46;99882.16;5074775;28;20060;-77
2022/04/21 11:14:33;;;;;;;3.80;3.20;;;;;;;25.97;25.33;99878.44;5074281;28;20055;-77
2022/04/21 11:17:01;;;;;;;4.97;3.42;;;;;;;26.57;25.03;99887.94;5074591;28;20053;-77
2022/04/21 11:19:37;;;;;;;4.15;3.17;;;;;;;27.22;23.91;99875.97;5074437;28;20040;-77
2022/04/21 11:22:07;;;;;;;5.18;3.30;;;;;;;27.58;22.87;99877.19;5073658;28;20053;-77
2022/04/21 11:25:02;;;;;;;5.22;3.20;;;;;;;27.50;22.70;99876.53;5074924;28;20048;-77
2022/04/21 11:27:31;;;;;;;3.58;2.80;;;;;;;27.32;22.67;99879.84;5075525;28;20045;-77
2022/04/21 11:30:07;;;;;;;4.93;3.30;;;;;;;26.88;22.78;99884.88;5075101;28;20052;-77
2022/04/21 11:32:36;;;;;;;5.57;3.28;;;;;;;26.48;23.46;99884.81;5074973;28;20480;-77
2022/04/21 11:35:06;;;;;;;3.70;3.10;;;;;;;25.68;23.58;99868.31;5075151;28;20486;-77
2022/04/21 11:37:52;;;;;;;6.63;3.47;;;;;;;24.78;24.78;99880.19;5075643;28;20048;-77
2022/04/21 11:40:28;;;;;;;4.78;3.70;;;;;;;24.21;25.97;99873.09;5080320;28;20063;-77
2022/04/21 11:42:57;;;;;;;4.63;3.83;;;;;;;23.86;26.43;99880.72;5074563;28;20065;-77
2022/04/21 11:45:25;;;;;;;6.15;3.80;;;;;;;23.77;27.53;99877.56;5073747;28;20052;-76
2022/04/21 11:47:53;;;;;;;6.32;3.50;;;;;;;23.93;27.60;99881.91;5074017;28;20044;-77
2022/04/21 11:50:22;;;;;;;4.80;3.30;;;;;;;24.06;27.09;99882.97;5073231;28;20404;-77
2022/04/21 11:52:53;;;;;;;6.93;3.88;;;;;;;24.09;26.90;99885.00;5073838;28;20068;-77
2022/04/21 11:55:25;;;;;;;6.43;3.60;;;;;;;24.10;27.08;99875.22;5073692;28;20052;-77
2022/04/21 11:57:53;;;;;;;4.70;3.50;;;;;;;24.22;26.75;99876.75;5073932;28;20487;-77
2022/04/21 12:08:44;;;;;;;5.53;4.28;;;;;;;24.46;27.24;99863.44;5079949;28;20051;-77
2022/04/21 12:11:13;;;;;;;4.07;3.47;;;;;;;24.89;26.86;99865.81;5076748;28;20401;-78
2022/04/21 12:13:41;;;;;;;6.95;3.80;;;;;;;25.14;26.04;99853.25;5077087;28;20465;-77
2022/04/21 12:16:45;;;;;;;4.30;3.42;;;;;;;25.03;25.97;99854.22;5072865;28;20056;-77
2022/04/21 12:19:14;;;;;;;4.85;3.63;;;;;;;25.48;25.75;99839.69;5072837;28;20077;-77
2022/04/21 12:21:42;;;;;;;;;;;;;;;25.87;25.26;99835.38;5073330;28;20060;-77
2022/04/21 12:24:15;;;;;;;4.32;3.70;;;;;;;27.12;24.66;99834.91;5075674;28;20363;-78
2022/04/21 12:26:50;;;;;;;6.45;3.88;;;;;;;28.44;22.57;99831.97;5077222;28;20051;-78
2022/04/21 12:29:17;;;;;;;4.70;3.70;;;;;;;29.63;21.88;99835.69;5077396;28;20056;-77
2022/04/21 12:31:49;;;;;;;5.25;3.60;;;;;;;30.85;20.60;99819.00;5076901;28;20059;-78
2022/04/21 12:34:24;;;;;;;3.75;2.83;;;;;;;30.18;20.52;99823.19;5075781;28;20060;-78
2022/04/21 12:36:54;;;;;;;4.53;3.38;;;;;;;29.83;20.50;99826.84;5076352;28;20044;-78